createdAt,value
2017-09-05T00:01:34.852Z,7.13
2017-09-05T00:04:03.905Z,7.50
2017-09-05T00:06:32.955Z,6.80
2017-09-05T00:12:11.515Z,7.93
2017-09-05T00:14:52.442Z,6.40
2017-09-05T00:17:31.416Z,10.00
2017-09-05T00:20:00.476Z,7.13
2017-09-05T00:22:29.840Z,9.50
2017-09-05T00:24:58.912Z,7.97
2017-09-05T00:27:27.944Z,7.80
2017-09-05T00:29:57.328Z,6.50
2017-09-05T00:32:26.397Z,7.47
2017-09-05T00:34:55.467Z,6.87
2017-09-05T00:37:24.512Z,7.03
2017-09-05T00:39:53.567Z,7.87
2017-09-05T00:42:22.636Z,7.83
2017-09-05T00:44:51.740Z,8.67
2017-09-05T00:47:20.767Z,8.60
2017-09-05T00:49:49.828Z,8.67
2017-09-05T00:52:18.913Z,11.30
2017-09-05T00:54:47.997Z,9.33
2017-09-05T00:57:17.035Z,9.47
2017-09-05T00:59:46.085Z,9.10
2017-09-05T01:02:15.212Z,9.50
2017-09-05T01:04:45.071Z,9.37
2017-09-05T01:07:14.148Z,11.43
2017-09-05T01:09:43.207Z,8.93
2017-09-05T01:12:13.061Z,7.93
2017-09-05T01:14:42.117Z,10.00
2017-09-05T01:17:11.576Z,8.30
2017-09-05T01:19:40.629Z,8.00
2017-09-05T01:22:09.708Z,9.80
2017-09-05T01:24:38.798Z,7.47
2017-09-05T01:27:08.120Z,8.30
2017-09-05T01:29:37.972Z,15.93
2017-09-05T01:32:07.016Z,7.30
2017-09-05T01:34:36.044Z,7.87
2017-09-05T01:37:05.121Z,7.40
2017-09-05T01:39:34.167Z,8.00
2017-09-05T01:42:03.254Z,8.53
2017-09-05T01:44:32.323Z,9.67
2017-09-05T01:47:01.386Z,7.50
2017-09-05T01:49:30.495Z,7.60
2017-09-05T01:51:59.562Z,7.50
2017-09-05T01:54:29.400Z,8.97
2017-09-05T01:56:59.230Z,7.50
2017-09-05T01:59:28.300Z,8.30
2017-09-05T02:01:57.392Z,7.63
2017-09-05T02:04:26.431Z,8.17
2017-09-05T02:06:55.495Z,7.90
2017-09-05T02:09:24.561Z,8.10
2017-09-05T02:11:53.628Z,9.13
2017-09-05T02:14:22.691Z,7.87
2017-09-05T02:16:51.768Z,8.60
2017-09-05T02:19:20.879Z,7.70
2017-09-05T02:21:50.684Z,8.67
2017-09-05T02:24:19.750Z,9.20
2017-09-05T02:26:48.796Z,7.97
2017-09-05T02:29:17.857Z,7.97
2017-09-05T02:31:46.917Z,9.60
2017-09-05T02:34:15.970Z,8.27
2017-09-05T02:36:45.033Z,9.53
2017-09-05T02:39:14.092Z,8.90
2017-09-05T02:41:43.441Z,11.10
2017-09-05T02:44:13.276Z,11.00
2017-09-05T02:46:42.324Z,9.97
2017-09-05T02:49:11.399Z,9.13
2017-09-05T02:51:40.476Z,9.70
2017-09-05T02:54:09.551Z,8.93
2017-09-05T02:56:38.614Z,11.60
2017-09-05T02:59:08.020Z,10.07
2017-09-05T03:01:37.048Z,9.50
2017-09-05T03:04:06.213Z,9.80
2017-09-05T03:06:35.395Z,7.80
2017-09-05T03:09:04.686Z,8.77
2017-09-05T03:11:33.694Z,9.10
2017-09-05T03:14:02.973Z,8.83
2017-09-05T03:16:32.031Z,8.67
2017-09-05T03:19:01.108Z,10.03
2017-09-05T03:21:30.152Z,10.83
2017-09-05T03:23:59.205Z,12.50
2017-09-05T03:26:28.282Z,10.90
2017-09-05T03:28:58.913Z,11.97
2017-09-05T03:31:28.013Z,12.40
2017-09-05T03:33:57.845Z,10.90
2017-09-05T03:36:26.964Z,11.13
2017-09-05T03:38:56.035Z,11.17
2017-09-05T03:41:25.444Z,10.50
2017-09-05T03:43:55.241Z,11.13
2017-09-05T03:46:25.131Z,12.47
2017-09-05T03:48:54.187Z,13.23
2017-09-05T03:51:23.251Z,13.83
2017-09-05T03:53:52.356Z,11.13
2017-09-05T03:56:21.658Z,12.60
2017-09-05T03:58:50.739Z,13.80
2017-09-05T04:01:19.783Z,12.23
2017-09-05T04:03:48.849Z,12.43
2017-09-05T04:06:17.932Z,10.97
2017-09-05T04:08:46.999Z,12.37
2017-09-05T04:11:16.083Z,15.27
2017-09-05T04:13:45.124Z,11.13
2017-09-05T04:16:14.198Z,12.17
2017-09-05T04:18:44.041Z,14.63
2017-09-05T04:21:13.118Z,13.10
2017-09-05T04:23:42.167Z,11.30
2017-09-05T04:26:11.231Z,10.60
2017-09-05T04:28:40.304Z,15.07
2017-09-05T04:31:09.381Z,13.13
2017-09-05T04:33:38.457Z,11.50
2017-09-05T04:36:07.967Z,11.60
2017-09-05T04:38:37.054Z,12.37
2017-09-05T04:41:06.150Z,13.67
2017-09-05T04:43:35.204Z,11.50
2017-09-05T04:46:04.267Z,11.20
2017-09-05T04:48:34.092Z,11.47
2017-09-05T04:51:03.335Z,12.90
2017-09-05T04:53:32.415Z,13.53
2017-09-05T04:56:01.481Z,15.23
2017-09-05T04:58:30.529Z,12.67
2017-09-05T05:00:59.588Z,13.00
2017-09-05T05:03:28.679Z,13.43
2017-09-05T05:05:57.744Z,12.20
2017-09-05T05:08:26.809Z,12.97
2017-09-05T05:10:55.854Z,14.40
2017-09-05T05:13:24.946Z,13.33
2017-09-05T05:15:54.325Z,13.77
2017-09-05T05:18:23.395Z,12.47
2017-09-05T05:20:52.466Z,15.10
2017-09-05T05:23:21.521Z,12.80
2017-09-05T05:25:50.591Z,16.20
2017-09-05T05:28:19.647Z,13.17
2017-09-05T05:30:48.731Z,13.73
2017-09-05T05:33:17.806Z,13.80
2017-09-05T05:35:46.879Z,14.50
2017-09-05T05:38:15.961Z,12.70
2017-09-05T05:40:45.048Z,12.60
2017-09-05T05:43:14.115Z,12.50
2017-09-05T05:45:43.168Z,12.50
2017-09-05T05:48:12.377Z,11.00
2017-09-05T05:50:41.440Z,11.30
2017-09-05T05:53:10.480Z,12.03
2017-09-05T05:55:39.551Z,11.40
2017-09-05T05:58:08.647Z,11.60
2017-09-05T06:00:37.704Z,9.87
2017-09-05T06:03:07.024Z,11.20
2017-09-05T06:05:36.056Z,9.93
2017-09-05T06:08:06.027Z,10.57
2017-09-05T06:10:35.116Z,10.93
2017-09-05T06:13:04.215Z,10.00
2017-09-05T06:15:33.244Z,9.93
2017-09-05T06:18:02.415Z,9.90
2017-09-05T06:20:31.479Z,9.80
2017-09-05T06:23:00.749Z,9.83
2017-09-05T06:25:29.813Z,11.07
2017-09-05T06:27:58.857Z,9.10
2017-09-05T06:30:27.910Z,10.43
2017-09-05T06:32:56.990Z,10.77
2017-09-05T06:35:26.033Z,9.23
2017-09-05T06:37:55.132Z,9.73
2017-09-05T06:40:24.936Z,9.67
2017-09-05T06:42:54.004Z,9.83
2017-09-05T06:45:23.085Z,9.40
2017-09-05T06:47:52.401Z,10.40
2017-09-05T06:50:21.475Z,9.83
2017-09-05T06:52:50.542Z,10.03
2017-09-05T06:55:19.688Z,9.93
2017-09-05T06:57:48.737Z,8.97
2017-09-05T07:00:17.823Z,9.90
2017-09-05T07:02:46.893Z,9.00
2017-09-05T07:05:16.719Z,8.67
2017-09-05T07:07:45.767Z,8.87
2017-09-05T07:10:14.859Z,8.20
2017-09-05T07:12:43.912Z,10.23
2017-09-05T07:15:12.999Z,8.90
2017-09-05T07:17:42.046Z,9.93
2017-09-05T07:20:11.324Z,9.70
2017-09-05T07:22:40.340Z,8.10
2017-09-05T07:25:10.214Z,8.60
2017-09-05T07:27:39.280Z,9.97
2017-09-05T07:30:08.509Z,10.00
2017-09-05T07:32:37.576Z,7.80
2017-09-05T07:35:07.413Z,7.93
2017-09-05T07:37:36.585Z,7.50
2017-09-05T07:40:05.674Z,9.40
2017-09-05T07:42:35.507Z,7.50
2017-09-05T07:45:04.880Z,8.10
2017-09-05T07:47:34.045Z,6.43
2017-09-05T07:50:03.335Z,8.40
2017-09-05T07:52:32.409Z,7.40
2017-09-05T07:55:01.452Z,8.57
2017-09-05T07:57:30.535Z,8.27
2017-09-05T07:59:59.570Z,7.57
2017-09-05T08:02:29.407Z,6.97
2017-09-05T08:04:58.473Z,6.10
2017-09-05T08:07:28.285Z,7.20
2017-09-05T08:09:57.357Z,6.33
2017-09-05T08:12:26.404Z,6.40
2017-09-05T08:14:55.463Z,6.10
2017-09-05T08:17:24.795Z,5.50
2017-09-05T08:19:53.875Z,7.20
2017-09-05T08:22:22.948Z,6.33
2017-09-05T08:24:51.985Z,7.07
2017-09-05T08:27:21.351Z,6.10
2017-09-05T08:29:50.379Z,5.37
2017-09-05T08:32:19.475Z,6.30
2017-09-05T08:34:48.509Z,6.40
2017-09-05T08:37:17.578Z,5.80
2017-09-05T08:39:46.931Z,5.10
2017-09-05T08:42:15.998Z,5.10
2017-09-05T08:44:45.044Z,6.07
2017-09-05T08:47:14.439Z,6.10
2017-09-05T08:49:44.255Z,6.03
2017-09-05T08:52:14.080Z,5.10
2017-09-05T08:54:43.120Z,5.93
2017-09-05T08:57:12.349Z,4.97
2017-09-05T08:59:41.964Z,5.37
2017-09-05T09:02:11.047Z,4.13
2017-09-05T09:04:40.092Z,4.57
2017-09-05T09:07:09.167Z,4.63
2017-09-05T09:09:38.202Z,5.10
2017-09-05T09:12:07.273Z,4.63
2017-09-05T09:14:36.345Z,4.33
2017-09-05T09:17:06.176Z,5.00
2017-09-05T09:19:35.345Z,5.87
2017-09-05T09:22:04.423Z,4.50
2017-09-05T09:24:33.463Z,4.50
2017-09-05T09:27:02.637Z,3.53
2017-09-05T09:29:31.691Z,3.90
2017-09-05T09:32:00.744Z,3.40
2017-09-05T09:34:29.833Z,3.60
2017-09-05T09:36:58.884Z,3.90
2017-09-05T09:39:27.992Z,4.10
2017-09-05T09:41:57.012Z,4.27
2017-09-05T09:44:26.077Z,3.90
2017-09-05T09:46:55.171Z,4.47
2017-09-05T09:49:24.436Z,3.47
2017-09-05T09:51:53.538Z,3.70
2017-09-05T09:54:22.675Z,4.93
2017-09-05T09:56:51.683Z,3.90
2017-09-05T09:59:20.772Z,3.67
2017-09-05T10:01:49.820Z,3.60
2017-09-05T10:04:18.923Z,3.57
2017-09-05T10:06:48.114Z,3.93
2017-09-05T10:09:17.179Z,3.57
2017-09-05T10:11:46.264Z,3.60
2017-09-05T10:14:15.379Z,5.17
2017-09-05T10:16:44.441Z,4.70
2017-09-05T10:19:13.495Z,3.90
2017-09-05T10:21:42.540Z,3.70
2017-09-05T10:24:11.716Z,4.33
2017-09-05T10:26:40.749Z,5.27
2017-09-05T10:29:09.844Z,3.23
2017-09-05T10:31:38.876Z,4.30
2017-09-05T10:34:07.928Z,3.30
2017-09-05T10:36:37.296Z,3.60
2017-09-05T10:39:06.370Z,3.60
2017-09-05T10:41:35.415Z,3.67
2017-09-05T10:44:04.480Z,3.70
2017-09-05T10:46:33.622Z,3.47
2017-09-05T10:49:02.657Z,3.23
2017-09-05T10:51:31.824Z,3.30
2017-09-05T10:54:00.885Z,4.20
2017-09-05T10:56:29.944Z,5.33
2017-09-05T10:58:59.021Z,3.00
2017-09-05T11:01:28.073Z,3.93
2017-09-05T11:03:57.152Z,3.97
2017-09-05T11:06:26.209Z,2.73
2017-09-05T11:08:55.279Z,4.80
2017-09-05T11:11:24.436Z,5.00
2017-09-05T11:13:53.592Z,7.37
2017-09-05T11:16:22.690Z,3.40
2017-09-05T11:18:51.821Z,3.00
2017-09-05T11:21:20.853Z,2.93
2017-09-05T11:23:49.957Z,3.50
2017-09-05T11:26:19.018Z,4.17
2017-09-05T11:28:48.830Z,2.97
2017-09-05T11:31:17.892Z,3.00
2017-09-05T11:33:46.961Z,4.83
2017-09-05T11:36:16.039Z,2.90
2017-09-05T11:38:45.156Z,2.60
2017-09-05T11:41:14.237Z,2.97
2017-09-05T11:43:43.281Z,4.97
2017-09-05T11:46:12.370Z,4.80
2017-09-05T11:48:41.405Z,2.57
2017-09-05T11:51:10.477Z,2.20
2017-09-05T11:53:39.588Z,1.73
2017-09-05T11:56:08.663Z,3.87
2017-09-05T11:58:37.748Z,2.47
2017-09-05T12:01:06.825Z,3.20
2017-09-05T12:03:35.905Z,2.37
2017-09-05T12:06:05.064Z,2.50
2017-09-05T12:08:34.112Z,3.10
2017-09-05T12:11:02.476Z,2.60
2017-09-05T12:13:31.344Z,2.60
2017-09-05T12:16:00.454Z,2.40
2017-09-05T12:18:29.709Z,1.97
2017-09-05T12:20:58.885Z,2.43
2017-09-05T12:23:27.978Z,1.73
2017-09-05T12:25:57.020Z,2.40
2017-09-05T12:28:26.092Z,2.50
2017-09-05T12:30:55.155Z,2.97
2017-09-05T12:33:24.207Z,2.23
2017-09-05T12:35:53.296Z,2.90
2017-09-05T12:38:22.351Z,2.80
2017-09-05T12:40:51.421Z,2.40
2017-09-05T12:43:20.504Z,2.53
2017-09-05T12:45:50.024Z,2.10
2017-09-05T12:48:19.088Z,2.63
2017-09-05T12:50:48.173Z,1.80
2017-09-05T12:53:17.393Z,1.80
2017-09-05T12:55:46.471Z,3.30
2017-09-05T12:58:15.511Z,1.93
2017-09-05T13:00:44.623Z,1.83
2017-09-05T13:03:13.685Z,4.10
2017-09-05T13:05:43.378Z,1.70
2017-09-05T13:08:12.587Z,2.10
2017-09-05T13:10:41.658Z,1.63
2017-09-05T13:13:11.184Z,1.70
2017-09-05T13:15:40.246Z,2.03
2017-09-05T13:18:10.148Z,2.53
2017-09-05T13:20:39.226Z,3.20
2017-09-05T13:23:08.336Z,3.90
2017-09-05T13:25:37.380Z,2.20
2017-09-05T13:28:06.831Z,2.30
2017-09-05T13:30:36.248Z,3.07
2017-09-05T13:33:05.316Z,2.07
2017-09-05T13:35:34.380Z,3.03
2017-09-05T13:38:03.520Z,2.03
2017-09-05T13:40:32.809Z,1.87
2017-09-05T13:43:01.880Z,2.00
2017-09-05T13:45:30.980Z,2.10
2017-09-05T13:48:00.047Z,2.17
2017-09-05T13:50:29.125Z,2.07
2017-09-05T13:52:58.221Z,1.87
2017-09-05T13:55:27.271Z,2.10
2017-09-05T13:57:56.331Z,2.13
2017-09-05T14:00:25.368Z,2.67
2017-09-05T14:02:54.473Z,2.50
2017-09-05T14:05:26.316Z,2.83
2017-09-05T14:07:57.435Z,2.50
2017-09-05T14:10:26.499Z,1.90
2017-09-05T14:12:55.544Z,2.40
2017-09-05T14:15:24.797Z,2.63
2017-09-05T14:17:53.857Z,2.30
2017-09-05T14:20:22.911Z,3.30
2017-09-05T14:22:52.018Z,3.17
2017-09-05T14:25:21.816Z,3.00
2017-09-05T14:27:50.891Z,2.57
2017-09-05T14:30:19.951Z,2.67
2017-09-05T14:32:49.013Z,3.23
2017-09-05T14:35:18.145Z,2.97
2017-09-05T14:37:47.229Z,2.27
2017-09-05T14:40:16.330Z,2.90
2017-09-05T14:42:45.760Z,4.07
2017-09-05T14:45:14.821Z,2.83
2017-09-05T14:47:43.866Z,2.57
2017-09-05T14:50:12.977Z,2.40
2017-09-05T14:52:42.040Z,2.40
2017-09-05T14:55:11.100Z,2.60
2017-09-05T14:57:40.220Z,3.13
2017-09-05T15:00:09.423Z,2.43
2017-09-05T15:02:38.486Z,4.77
2017-09-05T15:05:07.590Z,2.73
2017-09-05T15:07:36.627Z,3.73
2017-09-05T15:10:05.720Z,2.57
2017-09-05T15:12:34.784Z,2.57
2017-09-05T15:15:03.895Z,2.87
2017-09-05T15:17:32.993Z,2.17
2017-09-05T15:20:02.054Z,3.00
2017-09-05T15:22:31.144Z,2.50
2017-09-05T15:25:00.225Z,2.60
2017-09-05T15:27:29.301Z,2.50
2017-09-05T15:29:58.387Z,2.90
2017-09-05T15:32:28.256Z,3.07
2017-09-05T15:34:57.325Z,3.57
2017-09-05T15:37:26.394Z,3.70
2017-09-05T15:39:55.469Z,2.40
2017-09-05T15:42:24.524Z,2.50
2017-09-05T15:44:53.601Z,3.70
2017-09-05T15:47:22.668Z,2.50
2017-09-05T15:49:52.726Z,4.30
2017-09-05T15:52:21.868Z,3.73
2017-09-05T15:54:50.924Z,2.83
2017-09-05T15:57:20.027Z,3.07
2017-09-05T15:59:49.085Z,2.60
2017-09-05T16:02:18.166Z,3.10
2017-09-05T16:04:47.228Z,4.57
2017-09-05T16:07:16.328Z,2.90
2017-09-05T16:09:45.399Z,3.47
2017-09-05T16:12:14.660Z,2.60
2017-09-05T16:14:43.726Z,3.00
2017-09-05T16:17:12.818Z,7.33
2017-09-05T16:19:43.387Z,4.53
2017-09-05T16:22:13.489Z,2.77
2017-09-05T16:24:42.556Z,2.90
2017-09-05T16:27:11.623Z,3.00
2017-09-05T16:29:40.675Z,3.03
2017-09-05T16:32:09.771Z,4.10
2017-09-05T16:34:38.821Z,3.50
2017-09-05T16:37:07.915Z,3.17
2017-09-05T16:39:36.940Z,2.60
2017-09-05T16:42:06.282Z,2.70
2017-09-05T16:44:35.846Z,2.77
2017-09-05T16:47:05.884Z,2.70
2017-09-05T16:49:35.087Z,2.50
2017-09-05T16:52:04.265Z,2.80
2017-09-05T16:54:33.338Z,3.60
2017-09-05T16:57:02.401Z,4.20
2017-09-05T16:59:31.576Z,2.73
2017-09-05T17:02:02.120Z,3.57
2017-09-05T17:04:31.229Z,2.63
2017-09-05T17:07:00.340Z,3.03
2017-09-05T17:09:29.532Z,2.50
2017-09-05T17:11:58.594Z,3.03
2017-09-05T17:14:27.648Z,4.50
2017-09-05T17:16:56.769Z,6.10
2017-09-05T17:19:27.537Z,2.83
2017-09-05T17:21:56.630Z,2.33
2017-09-05T17:24:25.718Z,2.70
2017-09-05T17:26:55.054Z,2.53
2017-09-05T17:29:24.136Z,2.83
2017-09-05T17:31:53.207Z,3.43
2017-09-05T17:34:22.261Z,3.00
2017-09-05T17:36:51.354Z,5.23
2017-09-05T17:39:20.391Z,3.00
2017-09-05T17:41:49.459Z,2.77
2017-09-05T17:44:18.519Z,2.60
2017-09-05T17:46:47.950Z,3.27
2017-09-05T17:49:16.960Z,2.50
2017-09-05T17:51:46.024Z,3.10
2017-09-05T17:54:15.112Z,2.57
2017-09-05T17:56:44.329Z,2.83
2017-09-05T17:59:13.409Z,5.03
2017-09-05T18:01:42.477Z,4.43
2017-09-05T18:04:12.442Z,2.30
2017-09-05T18:06:41.498Z,2.50
2017-09-05T18:09:10.619Z,2.63
2017-09-05T18:11:39.649Z,8.10
2017-09-05T18:14:08.755Z,6.00
2017-09-05T18:16:37.858Z,2.90
2017-09-05T18:19:07.045Z,3.37
2017-09-05T18:21:36.148Z,5.47
2017-09-05T18:24:05.291Z,3.53
2017-09-05T18:26:35.484Z,2.77
2017-09-05T18:29:04.683Z,4.20
2017-09-05T18:31:33.774Z,4.33
2017-09-05T18:34:02.866Z,3.73
2017-09-05T18:36:31.911Z,3.53
2017-09-05T18:39:01.761Z,10.43
2017-09-05T18:41:30.980Z,3.30
2017-09-05T18:44:00.120Z,3.10
2017-09-05T18:46:29.989Z,4.70
2017-09-05T18:48:59.072Z,2.53
2017-09-05T18:51:28.256Z,3.27
2017-09-05T18:53:57.621Z,4.03
2017-09-05T18:56:28.261Z,3.30
2017-09-05T18:58:57.804Z,2.80
2017-09-05T19:01:26.937Z,2.43
2017-09-05T19:03:56.054Z,3.80
2017-09-05T19:06:25.110Z,3.63
2017-09-05T19:08:54.552Z,2.47
2017-09-05T19:11:23.736Z,3.40
2017-09-05T19:13:52.869Z,2.70
2017-09-05T19:16:21.947Z,4.00
2017-09-05T19:18:51.007Z,5.33
2017-09-05T19:21:20.098Z,3.63
2017-09-05T19:23:49.197Z,3.70
2017-09-05T19:26:18.244Z,3.53
2017-09-05T19:28:47.374Z,5.37
2017-09-05T19:31:16.434Z,4.77
2017-09-05T19:33:45.491Z,5.03
2017-09-05T19:36:14.591Z,4.77
2017-09-05T19:38:43.684Z,9.07
2017-09-05T19:41:12.796Z,4.17
2017-09-05T19:43:41.887Z,6.70
2017-09-05T19:46:10.947Z,6.90
2017-09-05T19:48:40.069Z,4.97
2017-09-05T19:51:09.209Z,5.20
2017-09-05T19:53:38.294Z,4.70
2017-09-05T19:56:08.151Z,6.77
2017-09-05T19:58:38.187Z,6.57
2017-09-05T20:01:07.289Z,4.77
2017-09-05T20:03:36.361Z,5.00
2017-09-05T20:06:05.987Z,5.30
2017-09-05T20:08:35.061Z,8.60
2017-09-05T20:11:04.116Z,4.87
2017-09-05T20:13:33.160Z,5.30
2017-09-05T20:16:02.276Z,5.10
2017-09-05T20:18:31.330Z,6.70
2017-09-05T20:21:00.385Z,4.50
2017-09-05T20:23:30.388Z,5.70
2017-09-05T20:25:59.580Z,5.80
2017-09-05T20:28:28.628Z,5.23
2017-09-05T20:30:57.687Z,5.30
2017-09-05T20:33:26.813Z,4.90
2017-09-05T20:35:55.864Z,8.13
2017-09-05T20:38:24.930Z,5.73
2017-09-05T20:40:53.987Z,6.70
2017-09-05T20:43:23.058Z,6.03
2017-09-05T20:45:53.070Z,5.50
2017-09-05T20:48:22.100Z,4.47
2017-09-05T20:50:51.160Z,3.90
2017-09-05T20:53:20.973Z,5.43
2017-09-05T20:55:50.063Z,5.20
2017-09-05T20:58:19.128Z,5.83
2017-09-05T21:00:48.190Z,6.43
2017-09-05T21:03:17.253Z,7.33
2017-09-05T21:05:47.061Z,6.30
2017-09-05T21:08:16.269Z,6.97
2017-09-05T21:10:46.096Z,6.17
2017-09-05T21:13:16.658Z,7.03
2017-09-05T21:15:45.757Z,6.60
2017-09-05T21:18:15.304Z,7.37
2017-09-05T21:20:45.124Z,7.10
2017-09-05T21:23:14.209Z,6.60
2017-09-05T21:25:43.340Z,6.90
2017-09-05T21:28:12.399Z,7.87
2017-09-05T21:30:41.459Z,7.83
2017-09-05T21:33:10.548Z,7.63
2017-09-05T21:35:39.606Z,6.73
2017-09-05T21:38:09.458Z,7.57
2017-09-05T21:40:38.500Z,7.50
2017-09-05T21:43:07.616Z,7.97
2017-09-05T21:45:37.416Z,6.40
2017-09-05T21:48:06.641Z,7.37
2017-09-05T21:50:35.702Z,7.00
2017-09-05T21:53:05.536Z,7.00
2017-09-05T21:55:34.871Z,7.00
2017-09-05T21:58:03.922Z,6.83
2017-09-05T22:00:33.001Z,6.57
2017-09-05T22:03:02.415Z,7.40
2017-09-05T22:05:31.445Z,6.73
2017-09-05T22:08:00.489Z,6.83
2017-09-05T22:10:29.529Z,7.60
2017-09-05T22:12:58.649Z,6.63
2017-09-05T22:15:33.178Z,7.33
2017-09-05T22:18:02.269Z,7.37
2017-09-05T22:20:36.964Z,7.43
2017-09-05T22:23:06.043Z,7.97
2017-09-05T22:25:40.676Z,6.40
2017-09-05T22:28:15.373Z,6.60
2017-09-05T22:30:44.421Z,6.07
2017-09-05T22:33:13.486Z,5.47
2017-09-05T22:35:43.309Z,6.47
2017-09-05T22:38:12.384Z,6.47
2017-09-05T22:40:41.411Z,6.07
2017-09-05T22:43:10.503Z,6.00
2017-09-05T22:45:39.579Z,5.97
2017-09-05T22:48:09.400Z,5.70
2017-09-05T22:50:38.436Z,7.27
2017-09-05T22:53:07.729Z,6.70
2017-09-05T22:55:36.763Z,8.27
2017-09-05T22:58:05.825Z,8.23
2017-09-05T23:00:34.888Z,6.37
2017-09-05T23:03:03.960Z,8.60
2017-09-05T23:05:33.789Z,7.67
2017-09-05T23:08:03.956Z,6.27
2017-09-05T23:10:33.263Z,4.77
2017-09-05T23:13:02.355Z,5.00
2017-09-05T23:15:31.424Z,4.77
2017-09-05T23:18:00.526Z,4.50
2017-09-05T23:20:29.580Z,5.90
2017-09-05T23:22:58.635Z,7.03
2017-09-05T23:25:27.714Z,4.93
2017-09-05T23:27:57.520Z,4.00
2017-09-05T23:30:26.580Z,5.30
2017-09-05T23:32:56.406Z,4.00
2017-09-05T23:35:25.482Z,6.93
2017-09-05T23:37:55.412Z,4.50
2017-09-05T23:40:24.456Z,3.93
2017-09-05T23:42:53.530Z,5.63
2017-09-05T23:45:22.585Z,5.50
2017-09-05T23:47:52.425Z,4.30
2017-09-05T23:50:21.488Z,4.07
2017-09-05T23:52:50.524Z,3.50
2017-09-05T23:55:19.624Z,3.97
2017-09-05T23:57:48.687Z,4.10
